Time;durP1;ratioP1;P1;durP2;ratioP2;P2;SDS_P1;SDS_P2;PMS_P1;PMS_P2;Temp;Humidity;BMP_temperature;BMP_pressure;BME280_temperature;BME280_humidity;BME280_pressure;Samples;Min_cycle;Max_cycle;Signal;HPM_P1;HPM_P2
2022/09/01 00:07:24;;;;;;;4.77;3.70;;;;;;;22.56;67.18;99863.44;30965663;28;19922;-77
2022/09/01 00:22:26;;;;;;;9.50;4.72;;;;;;;22.30;69.40;99868.50;30949060;28;20053;-75
2022/09/01 00:37:28;;;;;;;6.20;3.37;;;;;;;22.40;69.03;99861.47;30941194;28;20534;-75
2022/09/01 00:52:39;;;;;;;5.00;3.45;;;;;;;22.22;70.30;99873.03;30948990;28;20059;-76
2022/09/01 01:07:45;;;;;;;5.75;3.58;;;;;;;22.09;70.75;99876.31;30963610;28;20073;-76
2022/09/01 01:23:07;;;;;;;5.47;3.70;;;;;;;22.09;70.70;99859.72;30930115;28;20046;-76
2022/09/01 01:38:10;;;;;;;5.85;3.85;;;;;;;21.90;71.49;99859.47;30959689;28;20511;-76
2022/09/01 01:53:12;;;;;;;7.28;3.63;;;;;;;21.67;72.65;99855.19;30952412;28;20053;-75
2022/09/01 02:08:17;;;;;;;6.83;3.73;;;;;;;22.00;71.48;99866.25;30952648;28;20050;-76
2022/09/01 02:23:24;;;;;;;5.70;3.92;;;;;;;21.98;71.64;99871.50;30952792;28;20058;-76
2022/09/01 02:38:28;;;;;;;5.65;3.60;;;;;;;21.76;72.44;99882.53;30950058;28;20062;-76
2022/09/01 02:53:35;;;;;;;10.45;4.25;;;;;;;21.55;73.90;99895.06;30960068;28;20046;-77
2022/09/01 03:08:38;;;;;;;7.45;4.53;;;;;;;21.57;73.63;99887.78;30965618;28;20107;-77
2022/09/01 03:23:41;;;;;;;10.03;6.03;;;;;;;21.67;74.05;99874.50;30949897;28;20397;-75
2022/09/01 03:38:47;;;;;;;8.00;4.80;;;;;;;21.38;76.00;99887.50;30970591;28;20069;-77
2022/09/01 03:53:56;;;;;;;6.80;5.10;;;;;;;21.25;78.20;99912.06;30968186;28;20057;-75
2022/09/01 04:09:01;;;;;;;9.30;5.43;;;;;;;21.26;78.04;99905.25;30963943;28;20066;-77
2022/09/01 04:24:04;;;;;;;12.57;8.48;;;;;;;21.49;76.64;99899.84;30937904;28;20050;-76
2022/09/01 04:39:08;;;;;;;10.43;6.20;;;;;;;21.48;77.46;99912.13;30938114;28;20062;-77
2022/09/01 04:54:13;;;;;;;14.38;7.90;;;;;;;21.46;77.01;99907.09;30940059;28;20129;-75
2022/09/01 05:09:18;;;;;;;11.97;7.10;;;;;;;21.84;75.28;99905.66;30933953;28;20054;-76
2022/09/01 05:24:20;;;;;;;10.20;7.18;;;;;;;21.88;74.88;99919.25;30944931;28;20050;-75
2022/09/01 05:39:23;;;;;;;13.47;5.90;;;;;;;21.68;75.88;99932.03;30936814;28;20063;-76
2022/09/01 05:54:26;;;;;;;;;;;;;;;21.87;78.09;99942.59;30940922;28;20047;-77
2022/09/01 06:09:29;;;;;;;72.40;40.30;;;;;;;22.09;76.40;99957.22;30957817;28;20450;-78
2022/09/01 06:24:31;;;;;;;10.70;6.37;;;;;;;22.13;75.62;99948.69;30972792;28;20046;-77
2022/09/01 06:39:33;;;;;;;10.43;5.85;;;;;;;22.38;75.00;99952.47;30951567;28;20064;-77
2022/09/01 06:54:38;;;;;;;20.05;8.18;;;;;;;22.86;72.53;99949.44;30938717;28;20051;-77
2022/09/01 07:09:41;;;;;;;10.30;5.45;;;;;;;25.56;61.40;99950.41;30963991;28;20047;-79
2022/09/01 07:24:56;;;;;;;8.20;5.90;;;;;;;27.00;54.40;99937.53;30967746;28;20057;-76
2022/09/01 07:40:21;;;;;;;10.02;5.50;;;;;;;28.17;51.14;99932.91;30957800;28;20058;-78
2022/09/01 07:55:49;;;;;;;13.25;6.70;;;;;;;28.22;49.98;99927.78;31445307;28;20045;-79
2022/09/01 08:11:36;;;;;;;11.48;4.72;;;;;;;29.05;46.99;99924.84;31537359;28;20063;-84
2022/09/01 08:27:07;;;;;;;7.67;5.67;;;;;;;29.39;47.24;99907.84;31495215;28;20052;-81
2022/09/01 08:42:38;;;;;;;9.65;5.35;;;;;;;28.87;47.81;99911.88;31531513;28;20082;-85
2022/09/01 08:57:56;;;;;;;26.67;8.50;;;;;;;30.07;42.95;99888.44;31489775;28;20052;-80
2022/09/01 09:13:33;;;;;;;7.65;4.40;;;;;;;30.65;41.24;99886.75;31470859;28;20045;-79
2022/09/01 09:28:38;;;;;;;6.15;4.72;;;;;;;31.12;38.16;99877.63;31447055;28;20460;-79
2022/09/01 09:43:58;;;;;;;8.07;4.95;;;;;;;31.90;35.88;99887.84;31469703;28;20538;-83
2022/09/01 09:59:00;;;;;;;;;;;;;;;31.28;36.72;99875.50;31470619;28;20052;-80
2022/09/01 10:14:40;;;;;;;6.88;3.72;;;;;;;32.12;35.68;99892.56;31475058;28;20015;-74
2022/09/01 10:30:09;;;;;;;7.47;3.90;;;;;;;32.66;35.28;99890.00;31477719;28;20136;-79
2022/09/01 10:45:33;;;;;;;5.38;3.22;;;;;;;32.77;34.11;99871.94;31487531;28;20084;-80
2022/09/01 11:00:35;;;;;;;5.40;3.70;;;;;;;31.30;36.54;99867.28;31492451;28;20052;-81
2022/09/01 11:15:41;;;;;;;3.42;2.78;;;;;;;29.12;39.46;99865.44;31464868;28;20631;-79
2022/09/01 11:30:55;;;;;;;9.77;6.03;;;;;;;27.89;44.61;99857.53;31487310;28;20528;-80
2022/09/01 11:46:24;;;;;;;7.28;4.53;;;;;;;26.80;46.59;99839.41;31484938;28;20057;-78
2022/09/01 12:01:29;;;;;;;8.15;2.90;;;;;;;26.89;47.36;99823.53;31520539;28;20489;-77
2022/09/01 12:16:34;;;;;;;3.13;2.15;;;;;;;26.16;49.52;99842.34;31483442;28;20106;-80
2022/09/01 12:31:38;;;;;;;7.25;3.58;;;;;;;26.42;48.74;99835.34;31477574;28;20049;-80
2022/09/01 12:46:43;;;;;;;8.85;2.97;;;;;;;26.69;47.44;99842.38;31470584;28;20045;-80
2022/09/01 13:01:45;;;;;;;5.47;3.22;;;;;;;26.72;47.08;99858.03;31459239;28;20584;-77
2022/09/01 13:16:47;;;;;;;6.00;2.85;;;;;;;26.57;45.87;99862.63;31471180;28;20076;-74
2022/09/01 13:31:50;;;;;;;8.77;2.72;;;;;;;26.04;46.55;99863.28;31478872;28;20627;-78
2022/09/01 13:47:12;;;;;;;6.33;3.03;;;;;;;25.88;47.19;99869.88;31482251;28;20475;-78
2022/09/01 14:02:36;;;;;;;4.95;2.72;;;;;;;25.87;46.47;99882.28;31511039;28;20095;-79
2022/09/01 14:17:41;;;;;;;3.50;2.20;;;;;;;25.99;46.12;99896.75;31507403;28;20497;-81
2022/09/01 14:32:43;;;;;;;3.03;1.90;;;;;;;26.03;45.18;99909.06;31506495;28;20076;-83
2022/09/01 14:47:52;;;;;;;9.55;3.28;;;;;;;25.97;45.26;99902.84;31499058;28;20139;-80
2022/09/01 15:02:55;;;;;;;2.92;1.50;;;;;;;25.78;44.56;99913.25;31486130;28;20052;-80
2022/09/01 15:17:58;;;;;;;3.03;1.35;;;;;;;25.68;42.90;99914.94;31498970;28;20049;-78
2022/09/01 15:33:01;;;;;;;5.35;2.33;;;;;;;25.11;43.22;99930.78;31498388;28;20072;-80
2022/09/01 15:48:03;;;;;;;9.15;2.30;;;;;;;24.86;42.81;99937.59;31478801;28;20064;-76
2022/09/01 16:03:05;;;;;;;9.47;2.10;;;;;;;24.73;43.06;99944.56;31474626;28;20417;-79
2022/09/01 16:18:46;;;;;;;7.95;3.13;;;;;;;24.46;43.39;99967.75;31465859;28;20057;-80
2022/09/01 16:33:55;;;;;;;5.60;2.30;;;;;;;24.17;43.84;99985.09;31476808;28;20088;-79
2022/09/01 16:49:13;;;;;;;7.93;3.75;;;;;;;23.96;44.13;100006.91;31498128;28;20098;-81
2022/09/01 17:04:27;;;;;;;8.05;3.15;;;;;;;23.74;43.83;100032.72;31493626;28;20079;-78
2022/09/01 17:19:30;;;;;;;6.00;2.50;;;;;;;23.63;43.01;100055.69;31462985;28;20056;-78
2022/09/01 17:35:06;;;;;;;9.90;1.63;;;;;;;23.42;42.73;100077.41;31497544;28;20124;-88
2022/09/01 17:50:28;;;;;;;5.10;2.17;;;;;;;23.35;42.27;100097.31;31529871;28;20308;-83
2022/09/01 18:05:44;;;;;;;6.05;2.35;;;;;;;23.12;43.43;100084.78;31494131;28;20075;-85
2022/09/01 18:20:48;;;;;;;2.95;1.90;;;;;;;23.09;43.50;100091.31;31494890;28;20147;-84
2022/09/01 18:36:09;;;;;;;3.05;1.70;;;;;;;23.05;43.68;100101.88;31493252;28;20119;-82
2022/09/01 18:51:32;;;;;;;4.43;1.55;;;;;;;22.86;43.54;100106.41;31502081;28;20052;-84
2022/09/01 19:06:53;;;;;;;2.80;1.58;;;;;;;22.68;44.16;100119.44;31473924;28;20049;-84
2022/09/01 19:21:55;;;;;;;4.05;2.20;;;;;;;22.59;44.40;100150.13;31507008;28;20052;-83
2022/09/01 19:37:00;;;;;;;12.00;2.37;;;;;;;22.47;44.24;100162.41;31483567;28;20095;-82
2022/09/01 19:52:09;;;;;;;5.72;1.58;;;;;;;22.34;44.34;100173.94;31486632;28;20053;-81
2022/09/01 20:07:49;;;;;;;3.30;1.80;;;;;;;22.04;44.40;100192.91;31497180;28;20072;-79
2022/09/01 20:23:03;;;;;;;5.32;2.17;;;;;;;21.74;44.91;100197.22;31452696;28;20059;-81
2022/09/01 20:39:58;;;;;;;2.57;1.40;;;;;;;21.50;45.26;100219.66;31479163;28;20064;-81
2022/09/01 20:53:52;;;;;;;5.35;2.30;;;;;;;21.22;45.55;100230.50;31480929;28;20048;-80
2022/09/01 21:09:00;;;;;;;7.38;1.83;;;;;;;21.09;45.45;100250.16;31466011;28;20052;-80
2022/09/01 21:24:03;;;;;;;1.15;1.02;;;;;;;21.04;44.10;100270.19;31471167;28;20535;-80
2022/09/01 21:39:05;;;;;;;1.52;0.90;;;;;;;20.96;43.81;100287.66;31478600;28;20062;-80
2022/09/01 21:54:08;;;;;;;2.58;1.65;;;;;;;20.91;43.60;100297.41;31486625;28;20050;-80
2022/09/01 22:09:10;;;;;;;2.97;1.80;;;;;;;20.83;43.29;100312.84;31493513;28;20057;-80
2022/09/01 22:24:22;;;;;;;2.88;1.65;;;;;;;20.57;43.77;100318.28;31504439;28;20072;-79
2022/09/01 22:39:24;;;;;;;2.47;1.33;;;;;;;20.44;43.70;100323.38;31509746;28;20066;-80
2022/09/01 22:54:26;;;;;;;3.33;1.63;;;;;;;20.22;43.81;100331.31;31511660;28;20138;-78
2022/09/01 23:09:28;;;;;;;4.88;2.40;;;;;;;20.11;44.18;100351.19;31487427;28;20456;-79
2022/09/01 23:24:30;;;;;;;5.75;2.03;;;;;;;19.88;44.52;100352.06;31495627;28;20044;-79
2022/09/01 23:39:32;;;;;;;5.03;2.03;;;;;;;19.54;45.81;100361.78;31493297;28;20055;-81
2022/09/01 23:54:34;;;;;;;3.50;1.42;;;;;;;19.25;47.13;100365.97;31488487;28;20048;-79
